createdAt,value
2023-03-10T00:00:05.509Z,7.45
2023-03-10T00:02:34.184Z,7.18
2023-03-10T00:05:02.546Z,7.28
2023-03-10T00:07:29.263Z,8.02
2023-03-10T00:09:55.840Z,6.40
2023-03-10T00:12:22.766Z,8.02
2023-03-10T00:14:49.579Z,6.53
2023-03-10T00:17:16.201Z,7.45
2023-03-10T00:19:42.751Z,7.45
2023-03-10T00:22:09.364Z,8.35
2023-03-10T00:24:35.966Z,6.70
2023-03-10T00:27:02.600Z,7.93
2023-03-10T00:29:29.261Z,7.13
2023-03-10T00:31:55.951Z,7.50
2023-03-10T00:34:22.575Z,7.95
2023-03-10T00:36:51.709Z,7.25
2023-03-10T00:39:18.226Z,6.93
2023-03-10T00:41:44.970Z,7.22
2023-03-10T00:44:11.760Z,6.15
2023-03-10T00:46:38.734Z,7.95
2023-03-10T00:49:06.849Z,6.28
2023-03-10T00:51:34.609Z,6.50
2023-03-10T00:54:02.752Z,5.90
2023-03-10T00:56:30.421Z,5.55
2023-03-10T00:58:59.962Z,6.00
2023-03-10T01:01:26.740Z,5.35
2023-03-10T01:03:55.513Z,6.32
2023-03-10T01:06:22.502Z,5.38
2023-03-10T01:08:49.413Z,7.15
2023-03-10T01:11:18.823Z,5.28
2023-03-10T01:13:46.117Z,5.53
2023-03-10T01:16:12.935Z,5.80
2023-03-10T01:18:40.306Z,6.32
2023-03-10T01:21:07.536Z,6.85
2023-03-10T01:23:34.099Z,6.45
2023-03-10T01:26:00.817Z,6.30
2023-03-10T01:28:28.425Z,6.85
2023-03-10T01:30:56.159Z,5.80
2023-03-10T01:33:22.801Z,7.05
2023-03-10T01:35:49.488Z,6.72
2023-03-10T01:38:17.102Z,6.72
2023-03-10T01:40:49.093Z,8.75
2023-03-10T01:43:32.650Z,7.57
2023-03-10T01:46:02.312Z,8.30
2023-03-10T01:48:35.872Z,15.77
2023-03-10T01:51:03.638Z,10.68
2023-03-10T01:53:30.417Z,8.63
2023-03-10T01:56:00.835Z,7.78
2023-03-10T01:58:34.517Z,8.43
2023-03-10T02:01:01.432Z,7.80
2023-03-10T02:03:34.451Z,8.00
2023-03-10T02:06:04.930Z,9.45
2023-03-10T02:08:37.835Z,9.13
2023-03-10T02:11:05.380Z,9.65
2023-03-10T02:13:31.999Z,9.85
2023-03-10T02:15:59.006Z,10.90
2023-03-10T02:18:26.037Z,10.55
2023-03-10T02:21:21.980Z,11.15
2023-03-10T02:24:07.337Z,11.00
2023-03-10T02:26:49.256Z,10.15
2023-03-10T02:29:25.394Z,10.73
2023-03-10T02:31:53.934Z,10.27
2023-03-10T02:34:20.864Z,11.90
2023-03-10T02:36:47.456Z,10.82
2023-03-10T02:39:14.009Z,11.52
2023-03-10T02:41:42.997Z,13.43
2023-03-10T02:44:16.825Z,12.65
2023-03-10T02:46:43.428Z,13.68
2023-03-10T02:49:11.026Z,12.55
2023-03-10T02:51:44.189Z,10.75
2023-03-10T02:54:15.218Z,13.00
2023-03-10T02:56:42.826Z,13.38
2023-03-10T02:59:12.662Z,15.80
2023-03-10T03:01:44.678Z,11.32
2023-03-10T03:04:11.329Z,13.77
2023-03-10T03:06:39.704Z,9.82
2023-03-10T03:09:06.813Z,13.65
2023-03-10T03:11:33.471Z,11.90
2023-03-10T03:14:00.287Z,9.77
2023-03-10T03:16:28.310Z,9.57
2023-03-10T03:18:59.152Z,10.18
2023-03-10T03:21:27.294Z,9.50
2023-03-10T03:23:54.782Z,10.52
2023-03-10T03:26:25.524Z,11.45
2023-03-10T03:28:57.088Z,14.00
2023-03-10T03:31:27.839Z,14.15
2023-03-10T03:34:04.576Z,13.52
2023-03-10T03:36:31.633Z,14.52
2023-03-10T03:38:58.450Z,14.20
2023-03-10T03:41:27.862Z,16.83
2023-03-10T03:43:54.508Z,12.32
2023-03-10T03:46:21.442Z,14.30
2023-03-10T03:48:48.144Z,14.85
2023-03-10T03:51:14.786Z,13.63
2023-03-10T03:53:42.554Z,14.18
2023-03-10T03:56:09.388Z,11.88
2023-03-10T03:58:37.835Z,13.73
2023-03-10T04:01:04.800Z,14.70
2023-03-10T04:03:37.195Z,13.95
2023-03-10T04:06:06.769Z,15.65
2023-03-10T04:08:33.522Z,13.13
2023-03-10T04:11:00.263Z,12.98
2023-03-10T04:13:29.266Z,16.02
2023-03-10T04:15:58.264Z,14.43
2023-03-10T04:18:28.441Z,13.05
2023-03-10T04:20:55.692Z,17.08
2023-03-10T04:23:22.449Z,13.15
2023-03-10T04:25:49.251Z,16.42
2023-03-10T04:28:17.150Z,16.35
2023-03-10T04:30:45.354Z,13.75
2023-03-10T04:33:12.944Z,13.20
2023-03-10T04:35:42.688Z,15.30
2023-03-10T04:38:10.622Z,16.58
2023-03-10T04:40:37.238Z,14.77
2023-03-10T04:43:04.058Z,14.02
2023-03-10T04:45:31.674Z,14.18
2023-03-10T04:47:58.503Z,16.13
2023-03-10T04:50:25.777Z,15.23
2023-03-10T04:52:53.369Z,18.17
2023-03-10T04:55:24.048Z,14.77
2023-03-10T04:57:50.620Z,14.07
2023-03-10T05:00:17.913Z,14.68
2023-03-10T05:02:44.583Z,12.35
2023-03-10T05:05:11.835Z,14.05
2023-03-10T05:07:41.869Z,10.63
2023-03-10T05:10:09.839Z,12.10
2023-03-10T05:12:38.705Z,11.85
2023-03-10T05:15:06.235Z,12.20
2023-03-10T05:17:33.245Z,10.13
2023-03-10T05:20:01.022Z,11.10
2023-03-10T05:22:27.989Z,10.65
2023-03-10T05:24:54.672Z,11.38
2023-03-10T05:27:22.231Z,10.50
2023-03-10T05:29:49.687Z,10.65
2023-03-10T05:32:20.810Z,9.52
2023-03-10T05:34:48.537Z,11.13
2023-03-10T05:37:15.797Z,11.23
2023-03-10T05:39:43.813Z,12.75
2023-03-10T05:42:15.407Z,13.88
2023-03-10T05:44:42.747Z,12.40
2023-03-10T05:47:09.960Z,11.85
2023-03-10T05:49:38.644Z,11.00
2023-03-10T05:52:06.647Z,10.82
2023-03-10T05:54:33.307Z,12.48
2023-03-10T05:56:59.903Z,9.65
2023-03-10T05:59:28.450Z,11.00
2023-03-10T06:01:55.810Z,9.15
2023-03-10T06:04:22.409Z,11.05
2023-03-10T06:06:48.955Z,9.43
2023-03-10T06:09:15.517Z,8.52
2023-03-10T06:11:42.185Z,11.35
2023-03-10T06:14:09.756Z,11.43
2023-03-10T06:16:36.319Z,10.98
2023-03-10T06:19:03.028Z,11.68
2023-03-10T06:21:29.696Z,20.20
2023-03-10T06:23:56.556Z,16.92
2023-03-10T06:26:24.247Z,14.60
2023-03-10T06:28:51.071Z,10.70
2023-03-10T06:31:20.687Z,12.05
2023-03-10T06:33:47.960Z,13.30
2023-03-10T06:36:15.736Z,14.32
2023-03-10T06:38:42.705Z,18.05
2023-03-10T06:41:10.138Z,14.05
2023-03-10T06:43:36.790Z,14.98
2023-03-10T06:46:08.347Z,14.45
2023-03-10T06:48:35.716Z,16.77
2023-03-10T06:51:04.999Z,13.95
2023-03-10T06:53:31.516Z,16.70
2023-03-10T06:56:00.192Z,15.98
2023-03-10T06:58:27.740Z,16.42
2023-03-10T07:00:54.467Z,16.63
2023-03-10T07:03:21.046Z,15.50
2023-03-10T07:05:48.277Z,14.38
2023-03-10T07:08:14.815Z,13.35
2023-03-10T07:10:41.340Z,10.80
2023-03-10T07:13:09.326Z,9.75
2023-03-10T07:15:39.480Z,8.32
2023-03-10T07:18:06.489Z,7.95
2023-03-10T07:20:33.279Z,9.45
2023-03-10T07:22:59.962Z,10.40
2023-03-10T07:25:27.613Z,10.15
2023-03-10T07:27:54.492Z,10.85
2023-03-10T07:30:21.257Z,12.25
2023-03-10T07:32:47.937Z,13.32
2023-03-10T07:35:14.476Z,13.05
2023-03-10T07:37:41.035Z,12.10
2023-03-10T07:40:09.142Z,12.40
2023-03-10T07:42:35.677Z,14.80
2023-03-10T07:45:04.285Z,13.55
2023-03-10T07:47:31.074Z,14.85
2023-03-10T07:49:57.749Z,13.57
2023-03-10T07:52:24.364Z,10.38
2023-03-10T07:54:50.952Z,14.90
2023-03-10T07:57:17.507Z,12.35
2023-03-10T07:59:44.057Z,11.60
2023-03-10T08:02:14.774Z,10.75
2023-03-10T08:04:41.862Z,9.73
2023-03-10T08:07:09.147Z,11.18
2023-03-10T08:09:35.748Z,8.45
2023-03-10T08:12:03.313Z,8.43
2023-03-10T08:14:32.041Z,10.13
2023-03-10T08:16:58.821Z,8.32
2023-03-10T08:19:27.284Z,7.78
2023-03-10T08:21:55.944Z,6.80
2023-03-10T08:24:22.684Z,5.93
2023-03-10T08:26:49.272Z,6.82
2023-03-10T08:29:15.851Z,5.55
2023-03-10T08:31:42.650Z,6.57
2023-03-10T08:34:09.286Z,6.53
2023-03-10T08:36:36.381Z,5.72
2023-03-10T08:39:05.675Z,6.25
2023-03-10T08:41:50.409Z,6.07
2023-03-10T08:44:18.248Z,5.00
2023-03-10T08:46:47.074Z,5.32
2023-03-10T08:49:15.708Z,5.72
2023-03-10T08:51:43.344Z,5.88
2023-03-10T08:54:16.594Z,5.90
2023-03-10T08:56:43.163Z,5.53
2023-03-10T08:59:09.736Z,6.05
2023-03-10T09:01:37.751Z,6.07
2023-03-10T09:04:06.283Z,5.13
2023-03-10T09:06:33.070Z,5.30
2023-03-10T09:08:59.795Z,7.93
2023-03-10T09:11:29.376Z,5.65
2023-03-10T09:13:56.057Z,5.25
2023-03-10T09:16:23.017Z,5.68
2023-03-10T09:18:49.606Z,6.50
2023-03-10T09:21:18.621Z,9.40
2023-03-10T09:23:47.827Z,5.63
2023-03-10T09:26:15.525Z,6.38
2023-03-10T09:28:42.702Z,6.30
2023-03-10T09:31:14.583Z,6.90
2023-03-10T09:33:41.371Z,7.38
2023-03-10T09:36:08.653Z,5.18
2023-03-10T09:38:36.203Z,5.20
2023-03-10T09:41:09.814Z,7.28
2023-03-10T09:43:41.000Z,5.22
2023-03-10T09:46:25.699Z,4.80
2023-03-10T09:49:29.552Z,6.30
2023-03-10T09:51:56.187Z,6.00
2023-03-10T09:54:56.883Z,5.97
2023-03-10T09:57:23.811Z,5.68
2023-03-10T09:59:55.868Z,6.25
2023-03-10T10:02:27.708Z,5.75
2023-03-10T10:04:58.331Z,6.10
2023-03-10T10:07:29.560Z,4.95
2023-03-10T10:10:09.139Z,4.80
2023-03-10T10:12:35.945Z,5.07
2023-03-10T10:15:14.982Z,5.20
2023-03-10T10:17:55.072Z,4.95
2023-03-10T10:20:39.195Z,6.20
2023-03-10T10:23:31.979Z,6.72
2023-03-10T10:26:09.108Z,7.72
2023-03-10T10:28:54.523Z,5.40
2023-03-10T10:31:28.258Z,6.97
2023-03-10T10:34:19.604Z,7.68
2023-03-10T10:36:55.771Z,7.13
2023-03-10T10:39:34.645Z,9.15
2023-03-10T10:42:24.604Z,11.45
2023-03-10T10:44:53.882Z,9.38
2023-03-10T10:47:32.682Z,10.85
2023-03-10T10:50:30.131Z,10.02
2023-03-10T10:53:17.551Z,11.73
2023-03-10T10:55:46.477Z,9.32
2023-03-10T10:58:32.810Z,12.10
2023-03-10T11:01:05.874Z,10.07
2023-03-10T11:03:36.802Z,10.52
2023-03-10T11:06:34.348Z,12.02
2023-03-10T11:09:03.781Z,9.98
2023-03-10T11:11:38.310Z,8.20
2023-03-10T11:14:24.560Z,11.20
2023-03-10T11:17:03.125Z,8.27
2023-03-10T11:19:39.138Z,9.55
2023-03-10T11:22:22.376Z,8.45
2023-03-10T11:24:54.016Z,10.07
2023-03-10T11:27:35.952Z,8.03
2023-03-10T11:30:13.288Z,6.13
2023-03-10T11:33:10.157Z,10.07
2023-03-10T11:35:46.298Z,11.60
2023-03-10T11:38:24.327Z,7.20
2023-03-10T11:41:16.026Z,11.02
2023-03-10T11:43:53.070Z,10.35
2023-03-10T11:46:28.605Z,8.15
2023-03-10T11:49:05.788Z,9.13
2023-03-10T11:51:41.795Z,9.15
2023-03-10T11:54:14.204Z,7.40
2023-03-10T11:56:41.864Z,5.97
2023-03-10T11:59:15.974Z,7.07
2023-03-10T12:01:53.192Z,5.47
2023-03-10T12:04:42.921Z,5.18
2023-03-10T12:07:21.595Z,6.13
2023-03-10T12:09:57.737Z,4.85
2023-03-10T12:12:31.807Z,4.82
2023-03-10T12:15:02.287Z,4.40
2023-03-10T12:17:29.403Z,5.78
2023-03-10T12:20:22.873Z,6.65
2023-03-10T12:22:51.870Z,5.47
2023-03-10T12:25:30.688Z,5.07
2023-03-10T12:28:16.148Z,5.40
2023-03-10T12:30:42.757Z,6.93
2023-03-10T12:33:37.198Z,6.53
2023-03-10T12:36:35.407Z,6.70
2023-03-10T12:39:24.573Z,6.80
2023-03-10T12:41:53.197Z,9.43
2023-03-10T12:44:22.565Z,10.38
2023-03-10T12:46:59.289Z,7.93
2023-03-10T12:49:28.838Z,5.75
2023-03-10T12:52:10.522Z,6.13
2023-03-10T12:54:47.782Z,5.18
2023-03-10T12:57:33.657Z,4.88
2023-03-10T13:00:06.677Z,3.50
2023-03-10T13:02:51.283Z,3.83
2023-03-10T13:05:27.895Z,3.10
2023-03-10T13:08:00.669Z,3.65
2023-03-10T13:10:30.618Z,3.83
2023-03-10T13:13:02.993Z,4.78
2023-03-10T13:15:33.007Z,5.47
2023-03-10T13:18:18.672Z,4.25
2023-03-10T13:20:46.640Z,4.25
2023-03-10T13:23:32.559Z,3.58
2023-03-10T13:26:07.436Z,3.38
2023-03-10T13:28:35.955Z,2.58
2023-03-10T13:31:14.605Z,2.60
2023-03-10T13:33:52.384Z,3.10
2023-03-10T13:36:21.237Z,3.00
2023-03-10T13:38:47.884Z,2.88
2023-03-10T13:41:14.499Z,2.13
2023-03-10T13:43:49.062Z,2.28
2023-03-10T13:46:29.287Z,1.90
2023-03-10T13:49:03.638Z,1.38
2023-03-10T13:51:32.755Z,1.25
2023-03-10T13:54:22.643Z,1.73
2023-03-10T13:56:52.542Z,1.27
2023-03-10T13:59:31.458Z,1.63
2023-03-10T14:02:00.671Z,2.08
2023-03-10T14:04:50.640Z,1.27
2023-03-10T14:07:20.985Z,1.50
2023-03-10T14:10:10.105Z,1.58
2023-03-10T14:12:44.282Z,2.10
2023-03-10T14:15:20.004Z,1.23
2023-03-10T14:17:51.146Z,3.17
2023-03-10T14:20:29.807Z,2.80
2023-03-10T14:22:56.491Z,2.08
2023-03-10T14:25:24.150Z,4.78
2023-03-10T14:27:59.565Z,1.92
2023-03-10T14:30:29.289Z,3.33
2023-03-10T14:32:57.338Z,3.00
2023-03-10T14:35:24.808Z,2.03
2023-03-10T14:37:52.648Z,2.95
2023-03-10T14:40:22.093Z,2.20
2023-03-10T14:42:50.861Z,5.65
2023-03-10T14:45:29.405Z,4.38
2023-03-10T14:47:58.514Z,3.58
2023-03-10T14:50:26.738Z,3.13
2023-03-10T14:52:53.419Z,4.03
2023-03-10T14:55:19.974Z,2.42
2023-03-10T14:57:48.073Z,3.13
2023-03-10T15:00:19.983Z,2.83
2023-03-10T15:02:47.832Z,3.25
2023-03-10T15:05:16.659Z,4.03
2023-03-10T15:07:43.649Z,3.08
2023-03-10T15:10:12.448Z,2.47
2023-03-10T15:12:41.375Z,4.20
2023-03-10T15:15:18.560Z,3.00
2023-03-10T15:17:46.195Z,3.58
2023-03-10T15:20:17.824Z,4.13
2023-03-10T15:22:45.392Z,3.20
2023-03-10T15:25:14.103Z,4.20
2023-03-10T15:27:41.033Z,10.35
2023-03-10T15:30:17.206Z,8.45
2023-03-10T15:32:43.967Z,3.92
2023-03-10T15:35:11.617Z,6.78
2023-03-10T15:37:38.923Z,8.40
2023-03-10T15:40:06.163Z,7.13
2023-03-10T15:42:32.779Z,6.45
2023-03-10T15:44:59.842Z,4.93
2023-03-10T15:47:26.423Z,5.38
2023-03-10T15:49:52.946Z,5.60
2023-03-10T15:52:19.780Z,7.40
2023-03-10T15:54:46.348Z,7.18
2023-03-10T15:57:12.810Z,8.77
2023-03-10T15:59:39.363Z,9.18
2023-03-10T16:02:06.042Z,8.10
2023-03-10T16:04:32.864Z,9.38
2023-03-10T16:07:03.744Z,8.18
2023-03-10T16:09:30.901Z,7.40
2023-03-10T16:11:57.832Z,6.68
2023-03-10T16:14:26.221Z,5.22
2023-03-10T16:16:52.888Z,7.00
2023-03-10T16:19:19.515Z,6.43
2023-03-10T16:21:46.219Z,3.55
2023-03-10T16:24:13.156Z,7.20
2023-03-10T16:26:40.142Z,4.40
2023-03-10T16:29:07.705Z,9.48
2023-03-10T16:31:34.418Z,5.88
2023-03-10T16:34:01.054Z,9.00
2023-03-10T16:36:28.541Z,9.63
2023-03-10T16:38:55.413Z,7.63
2023-03-10T16:41:23.120Z,8.68
2023-03-10T16:43:49.950Z,6.18
2023-03-10T16:46:21.596Z,4.85
2023-03-10T16:48:48.656Z,4.80
2023-03-10T16:51:38.027Z,4.75
2023-03-10T16:54:09.628Z,6.00
2023-03-10T16:56:39.317Z,7.22
2023-03-10T16:59:06.259Z,9.07
2023-03-10T17:01:33.097Z,6.10
2023-03-10T17:04:00.092Z,7.07
2023-03-10T17:06:29.954Z,7.57
2023-03-10T17:08:57.543Z,7.88
2023-03-10T17:11:28.709Z,7.15
2023-03-10T17:13:58.572Z,6.55
2023-03-10T17:16:30.043Z,11.27
2023-03-10T17:18:59.429Z,9.23
2023-03-10T17:21:28.912Z,12.02
2023-03-10T17:23:55.867Z,7.90
2023-03-10T17:26:22.562Z,7.97
2023-03-10T17:28:51.122Z,7.90
2023-03-10T17:31:23.383Z,8.25
2023-03-10T17:33:50.428Z,7.50
2023-03-10T17:36:17.432Z,7.80
2023-03-10T17:38:45.201Z,7.22
2023-03-10T17:41:14.632Z,9.30
2023-03-10T17:43:41.978Z,10.48
2023-03-10T17:46:17.367Z,6.30
2023-03-10T17:48:44.947Z,5.38
2023-03-10T17:51:20.364Z,5.43
2023-03-10T17:53:47.337Z,3.88
2023-03-10T17:56:14.661Z,6.25
2023-03-10T17:58:41.327Z,4.13
2023-03-10T18:01:20.254Z,2.78
2023-03-10T18:03:48.471Z,3.85
2023-03-10T18:06:18.518Z,2.70
2023-03-10T18:08:45.632Z,1.80
2023-03-10T18:11:12.620Z,2.13
2023-03-10T18:13:40.078Z,2.58
2023-03-10T18:16:16.603Z,5.68
2023-03-10T18:18:43.516Z,3.70
2023-03-10T18:21:11.698Z,2.30
2023-03-10T18:23:38.265Z,2.65
2023-03-10T18:26:09.789Z,3.50
2023-03-10T18:28:37.192Z,2.92
2023-03-10T18:31:07.539Z,2.35
2023-03-10T18:33:34.846Z,4.85
2023-03-10T18:36:03.929Z,3.28
2023-03-10T18:38:30.554Z,3.78
2023-03-10T18:40:58.422Z,3.85
2023-03-10T18:43:26.421Z,3.42
2023-03-10T18:45:53.027Z,4.78
2023-03-10T18:48:19.628Z,5.70
2023-03-10T18:50:46.324Z,3.13
2023-03-10T18:53:12.928Z,5.00
2023-03-10T18:55:39.422Z,4.55
2023-03-10T18:58:06.008Z,2.65
2023-03-10T19:00:32.873Z,3.28
2023-03-10T19:02:59.514Z,2.53
2023-03-10T19:05:26.464Z,3.67
2023-03-10T19:07:53.091Z,2.35
2023-03-10T19:10:20.472Z,3.10
2023-03-10T19:12:47.089Z,2.92
2023-03-10T19:15:16.253Z,2.58
2023-03-10T19:17:43.399Z,7.47
2023-03-10T19:20:12.565Z,3.92
2023-03-10T19:22:40.112Z,4.90
2023-03-10T19:25:09.052Z,5.72
2023-03-10T19:27:42.071Z,9.52
2023-03-10T19:30:16.242Z,2.28
2023-03-10T19:32:43.571Z,6.00
2023-03-10T19:35:11.743Z,5.88
2023-03-10T19:37:42.774Z,3.83
2023-03-10T19:40:20.305Z,5.38
2023-03-10T19:42:47.362Z,6.68
2023-03-10T19:45:16.505Z,7.43
2023-03-10T19:47:43.518Z,7.60
2023-03-10T19:50:12.262Z,7.78
2023-03-10T19:52:44.088Z,6.90
2023-03-10T19:55:14.440Z,6.65
2023-03-10T19:57:41.125Z,5.50
2023-03-10T20:00:13.600Z,7.00
2023-03-10T20:05:09.499Z,4.53
2023-03-10T20:07:36.082Z,3.45
2023-03-10T20:10:03.407Z,4.95
2023-03-10T20:12:30.094Z,6.85
2023-03-10T20:15:00.157Z,4.70
2023-03-10T20:17:27.416Z,9.32
2023-03-10T20:19:54.142Z,10.93
2023-03-10T20:22:20.662Z,7.88
2023-03-10T20:24:47.226Z,4.40
2023-03-10T20:27:13.798Z,8.27
2023-03-10T20:29:40.384Z,8.93
2023-03-10T20:32:07.624Z,10.10
2023-03-10T20:34:34.365Z,8.55
2023-03-10T20:37:00.904Z,6.50
2023-03-10T20:39:27.456Z,9.57
2023-03-10T20:41:54.108Z,11.93
2023-03-10T20:44:20.741Z,8.05
2023-03-10T20:46:47.470Z,8.18
2023-03-10T20:49:14.087Z,7.85
2023-03-10T20:51:40.794Z,9.48
2023-03-10T20:54:07.388Z,9.80
2023-03-10T20:56:33.987Z,9.43
2023-03-10T20:59:05.010Z,9.27
2023-03-10T21:01:46.131Z,9.02
2023-03-10T21:04:15.850Z,9.52
2023-03-10T21:06:42.464Z,9.45
2023-03-10T21:09:08.966Z,10.63
2023-03-10T21:11:35.682Z,4.88
2023-03-10T21:14:02.331Z,4.53
2023-03-10T21:16:29.018Z,6.50
2023-03-10T21:18:55.692Z,7.60
2023-03-10T21:21:22.250Z,4.90
2023-03-10T21:23:49.232Z,8.10
2023-03-10T21:26:19.665Z,8.88
2023-03-10T21:28:47.113Z,7.82
2023-03-10T21:31:14.653Z,12.07
2023-03-10T21:33:44.438Z,6.72
2023-03-10T21:36:15.290Z,8.55
2023-03-10T21:38:42.414Z,11.93
2023-03-10T21:41:09.615Z,12.13
2023-03-10T21:43:36.150Z,10.20
2023-03-10T21:46:02.843Z,7.80
2023-03-10T21:48:30.616Z,14.07
2023-03-10T21:50:57.260Z,10.70
2023-03-10T21:53:26.464Z,11.13
2023-03-10T21:55:54.244Z,8.98
2023-03-10T21:58:23.362Z,11.82
2023-03-10T22:00:50.466Z,9.52
2023-03-10T22:03:17.834Z,8.52
2023-03-10T22:05:44.482Z,3.53
2023-03-10T22:08:11.172Z,17.83
2023-03-10T22:10:37.765Z,7.80
2023-03-10T22:13:04.439Z,9.98
2023-03-10T22:15:31.230Z,14.75
2023-03-10T22:17:58.115Z,6.57
2023-03-10T22:20:26.779Z,7.80
2023-03-10T22:22:53.581Z,9.00
2023-03-10T22:25:20.606Z,9.65
2023-03-10T22:27:52.979Z,10.63
2023-03-10T22:30:20.660Z,11.73
2023-03-10T22:32:47.714Z,12.10
2023-03-10T22:35:14.719Z,6.72
2023-03-10T22:37:41.490Z,7.93
2023-03-10T22:40:22.753Z,8.82
2023-03-10T22:42:49.573Z,8.73
2023-03-10T22:45:20.933Z,4.47
2023-03-10T22:47:48.636Z,9.90
2023-03-10T22:50:25.044Z,7.93
2023-03-10T22:52:52.072Z,9.40
2023-03-10T22:55:23.433Z,11.88
2023-03-10T22:57:50.661Z,7.38
2023-03-10T23:00:20.279Z,10.50
2023-03-10T23:02:48.080Z,14.02
2023-03-10T23:05:15.853Z,9.48
2023-03-10T23:07:43.164Z,10.50
2023-03-10T23:10:15.485Z,13.20
2023-03-10T23:12:44.210Z,8.73
2023-03-10T23:15:24.987Z,14.63
2023-03-10T23:17:53.820Z,10.20
2023-03-10T23:20:23.937Z,8.05
2023-03-10T23:22:50.500Z,11.75
2023-03-10T23:25:20.007Z,8.57
2023-03-10T23:27:46.847Z,7.75
2023-03-10T23:30:16.704Z,5.28
2023-03-10T23:32:49.010Z,6.93
2023-03-10T23:35:22.403Z,6.63
2023-03-10T23:37:49.145Z,7.05
2023-03-10T23:40:18.631Z,8.32
2023-03-10T23:42:45.624Z,8.35
2023-03-10T23:45:16.525Z,6.95
2023-03-10T23:47:44.317Z,11.40
2023-03-10T23:50:26.676Z,10.15
2023-03-10T23:52:53.810Z,6.38
2023-03-10T23:55:23.287Z,8.68
2023-03-10T23:57:50.057Z,9.80
